In Rescue
 
Open Full Screen Window  High Contrast Mode
Wind Gusting 00 knots
04
October 07, 2022 4:22 PM EDT
Weather Information
Wind Direction
  300 °
Wind Speed
  04 kt (5 mph)
Wind Gust
  00 kt (0 mph)
Altimeter
30.18 in
Visibility
10 SM
Temperature
09° C
48° F
Dewpoint
04° C
39° F
Humidity
71%
1hr Rain Fall
00.00 in.
24hr Rain Fall
00.00 in.
Sky Condition
Overcast @ 3,600 ft
Scattered @ 2,500 ft
VFR

METAR KPOV 072022Z AUTO 30004KT 10SM SCT025 OVC036 09/04 A3018 RMK AO2 T00930035 PWINO

FAA Disclaimer: The data displayed is for advisory purposes only and is not to be used for flight planning or operations.